sensor_id;sensor_type;location;lat;lon;timestamp;pressure;altitude;pressure_sealevel;temperature;humidity
45864;BME280;31579;52.354;16.974;2023-04-08T00:00:50;413.2;;;-146.1;100.0
45864;BME280;31579;52.354;16.974;2023-04-08T00:01:54;410.2;;;-146.1;100.0
45864;BME280;31579;52.354;16.974;2023-04-08T00:02:58;405.1;;;-146.1;100.0
45864;BME280;31579;52.354;16.974;2023-04-08T00:04:10;405.1;;;-146.1;100.0
45864;BME280;31579;52.354;16.974;2023-04-08T00:05:14;277.5;;;-146.1;100.0
45864;BME280;31579;52.354;16.974;2023-04-08T00:06:18;283.6;;;-146.1;100.0
45864;BME280;31579;52.354;16.974;2023-04-08T00:07:22;293.9;;;-146.1;100.0
45864;BME280;31579;52.354;16.974;2023-04-08T00:08:26;299.7;;;-146.1;100.0
45864;BME280;31579;52.354;16.974;2023-04-08T00:09:30;305.7;;;-146.1;100.0
45864;BME280;31579;52.354;16.974;2023-04-08T00:10:35;312.3;;;-146.1;100.0
45864;BME280;31579;52.354;16.974;2023-04-08T00:11:40;317.3;;;-146.1;100.0
45864;BME280;31579;52.354;16.974;2023-04-08T00:12:45;319.5;;;-146.1;100.0
45864;BME280;31579;52.354;16.974;2023-04-08T00:13:48;319.2;;;-146.1;100.0
45864;BME280;31579;52.354;16.974;2023-04-08T00:14:52;319.8;;;-146.1;100.0
45864;BME280;31579;52.354;16.974;2023-04-08T00:15:56;319.2;;;-146.1;100.0
45864;BME280;31579;52.354;16.974;2023-04-08T00:17:01;321.8;;;-146.1;100.0
45864;BME280;31579;52.354;16.974;2023-04-08T00:18:21;450.5;;;-146.1;100.0
45864;BME280;31579;52.354;16.974;2023-04-08T00:19:25;321.0;;;-146.1;100.0
45864;BME280;31579;52.354;16.974;2023-04-08T00:20:29;290.6;;;-146.1;100.0
45864;BME280;31579;52.354;16.974;2023-04-08T00:21:33;277.2;;;-146.1;100.0
45864;BME280;31579;52.354;16.974;2023-04-08T00:22:37;268.3;;;-146.1;100.0
45864;BME280;31579;52.354;16.974;2023-04-08T00:23:41;262.3;;;-146.1;100.0
45864;BME280;31579;52.354;16.974;2023-04-08T00:24:45;257.8;;;-146.1;100.0
45864;BME280;31579;52.354;16.974;2023-04-08T00:26:04;378.4;;;-146.1;100.0
45864;BME280;31579;52.354;16.974;2023-04-08T00:27:08;299.2;;;-146.1;100.0
45864;BME280;31579;52.354;16.974;2023-04-08T00:28:12;276.7;;;-146.1;100.0
45864;BME280;31579;52.354;16.974;2023-04-08T00:29:16;264.2;;;-146.1;100.0
45864;BME280;31579;52.354;16.974;2023-04-08T00:30:20;256.4;;;-146.1;100.0
45864;BME280;31579;52.354;16.974;2023-04-08T00:31:25;248.6;;;-146.1;100.0
45864;BME280;31579;52.354;16.974;2023-04-08T00:32:29;244.9;;;-146.1;100.0
45864;BME280;31579;52.354;16.974;2023-04-08T00:33:34;242.2;;;-146.1;100.0
45864;BME280;31579;52.354;16.974;2023-04-08T00:34:39;242.1;;;-146.1;100.0
45864;BME280;31579;52.354;16.974;2023-04-08T00:35:43;242.4;;;-146.1;100.0
45864;BME280;31579;52.354;16.974;2023-04-08T00:36:47;243.0;;;-146.1;100.0
45864;BME280;31579;52.354;16.974;2023-04-08T00:37:51;243.5;;;-146.1;100.0
45864;BME280;31579;52.354;16.974;2023-04-08T00:38:55;243.8;;;-146.1;100.0
45864;BME280;31579;52.354;16.974;2023-04-08T00:39:59;244.6;;;-146.1;100.0
45864;BME280;31579;52.354;16.974;2023-04-08T00:41:12;388.0;;;-146.1;100.0
45864;BME280;31579;52.354;16.974;2023-04-08T00:42:16;326.5;;;-146.1;100.0
45864;BME280;31579;52.354;16.974;2023-04-08T00:43:20;312.1;;;-146.1;100.0
45864;BME280;31579;52.354;16.974;2023-04-08T00:44:25;305.8;;;-146.1;100.0
45864;BME280;31579;52.354;16.974;2023-04-08T00:45:29;298.0;;;-146.1;100.0
45864;BME280;31579;52.354;16.974;2023-04-08T00:46:34;292.8;;;-146.1;100.0
45864;BME280;31579;52.354;16.974;2023-04-08T00:47:38;285.6;;;-146.1;100.0
45864;BME280;31579;52.354;16.974;2023-04-08T00:48:42;279.8;;;-146.1;100.0
45864;BME280;31579;52.354;16.974;2023-04-08T00:49:47;277.2;;;-146.1;100.0
45864;BME280;31579;52.354;16.974;2023-04-08T00:50:51;271.8;;;-146.1;100.0
45864;BME280;31579;52.354;16.974;2023-04-08T00:51:55;267.4;;;-146.1;100.0
45864;BME280;31579;52.354;16.974;2023-04-08T00:53:00;267.1;;;-146.1;100.0
45864;BME280;31579;52.354;16.974;2023-04-08T00:54:04;265.0;;;-146.1;100.0
45864;BME280;31579;52.354;16.974;2023-04-08T00:55:08;263.4;;;-146.1;100.0
45864;BME280;31579;52.354;16.974;2023-04-08T00:56:10;409.6;;;-146.1;100.0
45864;BME280;31579;52.354;16.974;2023-04-08T00:57:14;332.9;;;-146.1;100.0
45864;BME280;31579;52.354;16.974;2023-04-08T00:58:18;312.7;;;-146.1;100.0
45864;BME280;31579;52.354;16.974;2023-04-08T00:59:22;300.0;;;-146.1;100.0
45864;BME280;31579;52.354;16.974;2023-04-08T01:00:27;290.0;;;-146.1;100.0
45864;BME280;31579;52.354;16.974;2023-04-08T01:03:41;271.3;;;-146.1;100.0
45864;BME280;31579;52.354;16.974;2023-04-08T01:07:55;261.4;;;-146.1;100.0
45864;BME280;31579;52.354;16.974;2023-04-08T01:08:59;260.2;;;-146.1;100.0
45864;BME280;31579;52.354;16.974;2023-04-08T01:10:02;370.7;;;-146.1;100.0
45864;BME280;31579;52.354;16.974;2023-04-08T01:11:04;381.8;;;-146.1;100.0
45864;BME280;31579;52.354;16.974;2023-04-08T01:12:08;325.2;;;-146.1;100.0
45864;BME280;31579;52.354;16.974;2023-04-08T01:13:13;301.3;;;-146.1;100.0
45864;BME280;31579;52.354;16.974;2023-04-08T01:14:16;283.9;;;-146.1;100.0
45864;BME280;31579;52.354;16.974;2023-04-08T01:15:20;271.2;;;-146.1;100.0
45864;BME280;31579;52.354;16.974;2023-04-08T01:16:23;322.7;;;-146.1;100.0
45864;BME280;31579;52.354;16.974;2023-04-08T01:17:27;280.7;;;-146.1;100.0
45864;BME280;31579;52.354;16.974;2023-04-08T01:18:31;268.5;;;-146.1;100.0
45864;BME280;31579;52.354;16.974;2023-04-08T01:19:36;261.9;;;-146.1;100.0
45864;BME280;31579;52.354;16.974;2023-04-08T01:20:39;258.6;;;-146.1;100.0
45864;BME280;31579;52.354;16.974;2023-04-08T01:21:43;258.8;;;-146.1;100.0
45864;BME280;31579;52.354;16.974;2023-04-08T01:22:54;258.7;;;-146.1;100.0
45864;BME280;31579;52.354;16.974;2023-04-08T01:23:54;260.8;;;-146.1;100.0
45864;BME280;31579;52.354;16.974;2023-04-08T01:24:58;263.2;;;-146.1;100.0
45864;BME280;31579;52.354;16.974;2023-04-08T01:26:00;266.1;;;-146.1;100.0
45864;BME280;31579;52.354;16.974;2023-04-08T01:27:04;268.2;;;-146.1;100.0
45864;BME280;31579;52.354;16.974;2023-04-08T01:28:10;269.9;;;-146.1;100.0
45864;BME280;31579;52.354;16.974;2023-04-08T01:29:13;268.0;;;-146.1;100.0
45864;BME280;31579;52.354;16.974;2023-04-08T01:30:17;270.6;;;-146.1;100.0
45864;BME280;31579;52.354;16.974;2023-04-08T01:31:21;272.3;;;-146.1;100.0
45864;BME280;31579;52.354;16.974;2023-04-08T01:32:25;272.8;;;-146.1;100.0
45864;BME280;31579;52.354;16.974;2023-04-08T01:33:29;272.5;;;-146.1;100.0
45864;BME280;31579;52.354;16.974;2023-04-08T01:34:33;274.4;;;-146.1;100.0
45864;BME280;31579;52.354;16.974;2023-04-08T01:35:37;273.4;;;-146.1;100.0
45864;BME280;31579;52.354;16.974;2023-04-08T01:36:41;275.1;;;-146.1;100.0
45864;BME280;31579;52.354;16.974;2023-04-08T01:37:45;275.2;;;-146.1;100.0
45864;BME280;31579;52.354;16.974;2023-04-08T01:38:49;275.5;;;-146.1;100.0
45864;BME280;31579;52.354;16.974;2023-04-08T01:39:53;274.7;;;-146.1;100.0
45864;BME280;31579;52.354;16.974;2023-04-08T01:40:57;274.3;;;-146.1;100.0
45864;BME280;31579;52.354;16.974;2023-04-08T01:42:01;272.6;;;-146.1;100.0
45864;BME280;31579;52.354;16.974;2023-04-08T01:43:04;209.9;;;-146.1;100.0
45864;BME280;31579;52.354;16.974;2023-04-08T01:44:08;245.5;;;-146.1;100.0
45864;BME280;31579;52.354;16.974;2023-04-08T01:45:12;254.0;;;-146.1;100.0
45864;BME280;31579;52.354;16.974;2023-04-08T01:46:16;257.6;;;-146.1;100.0
45864;BME280;31579;52.354;16.974;2023-04-08T01:47:20;259.7;;;-146.1;100.0
45864;BME280;31579;52.354;16.974;2023-04-08T01:48:24;260.9;;;-146.1;100.0
45864;BME280;31579;52.354;16.974;2023-04-08T01:49:28;263.1;;;-146.1;100.0
45864;BME280;31579;52.354;16.974;2023-04-08T01:50:32;264.0;;;-146.1;100.0
45864;BME280;31579;52.354;16.974;2023-04-08T01:51:36;264.8;;;-146.1;100.0
45864;BME280;31579;52.354;16.974;2023-04-08T01:52:42;262.8;;;-146.1;100.0
45864;BME280;31579;52.354;16.974;2023-04-08T01:53:45;262.7;;;-146.1;100.0
45864;BME280;31579;52.354;16.974;2023-04-08T01:54:49;263.1;;;-146.1;100.0
45864;BME280;31579;52.354;16.974;2023-04-08T01:55:55;263.4;;;-146.1;100.0
45864;BME280;31579;52.354;16.974;2023-04-08T01:56:57;262.5;;;-146.1;100.0
45864;BME280;31579;52.354;16.974;2023-04-08T01:58:01;262.0;;;-146.1;100.0
45864;BME280;31579;52.354;16.974;2023-04-08T01:59:13;259.7;;;-146.1;100.0
45864;BME280;31579;52.354;16.974;2023-04-08T02:00:08;177.7;;;-146.1;100.0
45864;BME280;31579;52.354;16.974;2023-04-08T02:01:13;192.3;;;-146.1;100.0
45864;BME280;31579;52.354;16.974;2023-04-08T02:02:16;209.7;;;-146.1;100.0
45864;BME280;31579;52.354;16.974;2023-04-08T02:03:19;198.4;;;-146.1;100.0
45864;BME280;31579;52.354;16.974;2023-04-08T02:04:23;215.0;;;-146.1;100.0
45864;BME280;31579;52.354;16.974;2023-04-08T02:05:26;203.3;;;-146.1;100.0
45864;BME280;31579;52.354;16.974;2023-04-08T02:06:29;219.7;;;-146.1;100.0
45864;BME280;31579;52.354;16.974;2023-04-08T02:07:33;212.7;;;-146.1;100.0
45864;BME280;31579;52.354;16.974;2023-04-08T02:08:37;225.1;;;-146.1;100.0
45864;BME280;31579;52.354;16.974;2023-04-08T02:09:41;236.0;;;-146.1;100.0
45864;BME280;31579;52.354;16.974;2023-04-08T02:10:45;244.5;;;-146.1;100.0
45864;BME280;31579;52.354;16.974;2023-04-08T02:11:49;250.4;;;-146.1;100.0
45864;BME280;31579;52.354;16.974;2023-04-08T02:12:53;256.1;;;-146.1;100.0
45864;BME280;31579;52.354;16.974;2023-04-08T02:13:56;199.7;;;-146.1;100.0
45864;BME280;31579;52.354;16.974;2023-04-08T02:14:59;195.7;;;-146.1;100.0
45864;BME280;31579;52.354;16.974;2023-04-08T02:16:05;247.4;;;-146.1;100.0
45864;BME280;31579;52.354;16.974;2023-04-08T02:18:10;219.7;;;-146.1;100.0
45864;BME280;31579;52.354;16.974;2023-04-08T02:19:14;242.4;;;-146.1;100.0
45864;BME280;31579;52.354;16.974;2023-04-08T02:20:16;222.1;;;-146.1;100.0
45864;BME280;31579;52.354;16.974;2023-04-08T02:21:19;230.4;;;-146.1;100.0
45864;BME280;31579;52.354;16.974;2023-04-08T02:22:24;223.2;;;-146.1;100.0
45864;BME280;31579;52.354;16.974;2023-04-08T02:23:26;230.0;;;-146.1;100.0
45864;BME280;31579;52.354;16.974;2023-04-08T02:24:30;244.7;;;-146.1;100.0
45864;BME280;31579;52.354;16.974;2023-04-08T02:25:33;212.9;;;-146.1;100.0
45864;BME280;31579;52.354;16.974;2023-04-08T02:26:37;240.8;;;-146.1;100.0
45864;BME280;31579;52.354;16.974;2023-04-08T02:27:41;256.9;;;-146.1;100.0
45864;BME280;31579;52.354;16.974;2023-04-08T02:28:45;266.5;;;-146.1;100.0
45864;BME280;31579;52.354;16.974;2023-04-08T02:29:49;272.9;;;-146.1;100.0
45864;BME280;31579;52.354;16.974;2023-04-08T02:30:53;279.0;;;-146.1;100.0
45864;BME280;31579;52.354;16.974;2023-04-08T02:31:56;221.4;;;-146.1;100.0
45864;BME280;31579;52.354;16.974;2023-04-08T02:32:59;201.7;;;-146.1;100.0
45864;BME280;31579;52.354;16.974;2023-04-08T02:34:01;202.7;;;-146.1;100.0
45864;BME280;31579;52.354;16.974;2023-04-08T02:35:05;203.6;;;-146.1;100.0
45864;BME280;31579;52.354;16.974;2023-04-08T02:36:09;214.2;;;-146.1;100.0
45864;BME280;31579;52.354;16.974;2023-04-08T02:37:13;194.8;;;-146.1;100.0
45864;BME280;31579;52.354;16.974;2023-04-08T02:38:16;199.7;;;-146.1;100.0
45864;BME280;31579;52.354;16.974;2023-04-08T02:39:20;215.9;;;-146.1;100.0
45864;BME280;31579;52.354;16.974;2023-04-08T02:41:27;223.6;;;-146.1;100.0
45864;BME280;31579;52.354;16.974;2023-04-08T02:42:30;190.6;;;-146.1;100.0
45864;BME280;31579;52.354;16.974;2023-04-08T02:43:34;228.4;;;-146.1;100.0
45864;BME280;31579;52.354;16.974;2023-04-08T02:44:37;189.6;;;-146.1;100.0
45864;BME280;31579;52.354;16.974;2023-04-08T02:45:41;231.3;;;-146.1;100.0
45864;BME280;31579;52.354;16.974;2023-04-08T02:46:45;246.1;;;-146.1;100.0
45864;BME280;31579;52.354;16.974;2023-04-08T02:47:48;193.3;;;-146.1;100.0
45864;BME280;31579;52.354;16.974;2023-04-08T02:48:52;238.8;;;-146.1;100.0
45864;BME280;31579;52.354;16.974;2023-04-08T02:49:56;251.5;;;-146.1;100.0
45864;BME280;31579;52.354;16.974;2023-04-08T02:50:59;197.5;;;-146.1;100.0
45864;BME280;31579;52.354;16.974;2023-04-08T02:52:01;186.5;;;-146.1;100.0
45864;BME280;31579;52.354;16.974;2023-04-08T02:53:04;187.5;;;-146.1;100.0
45864;BME280;31579;52.354;16.974;2023-04-08T02:54:07;195.5;;;-146.1;100.0
45864;BME280;31579;52.354;16.974;2023-04-08T02:55:11;201.8;;;-146.1;100.0
45864;BME280;31579;52.354;16.974;2023-04-08T02:56:14;186.8;;;-146.1;100.0
45864;BME280;31579;52.354;16.974;2023-04-08T02:57:17;191.8;;;-146.1;100.0
45864;BME280;31579;52.354;16.974;2023-04-08T02:58:20;197.5;;;-146.1;100.0
45864;BME280;31579;52.354;16.974;2023-04-08T02:59:24;206.4;;;-146.1;100.0
45864;BME280;31579;52.354;16.974;2023-04-08T03:00:27;189.3;;;-146.1;100.0
45864;BME280;31579;52.354;16.974;2023-04-08T03:01:30;193.6;;;-146.1;100.0
45864;BME280;31579;52.354;16.974;2023-04-08T03:02:33;199.8;;;-146.1;100.0
45864;BME280;31579;52.354;16.974;2023-04-08T03:03:37;209.7;;;-146.1;100.0
45864;BME280;31579;52.354;16.974;2023-04-08T03:04:40;192.3;;;-146.1;100.0
45864;BME280;31579;52.354;16.974;2023-04-08T03:05:43;197.1;;;-146.1;100.0
45864;BME280;31579;52.354;16.974;2023-04-08T03:06:47;215.0;;;-146.1;100.0
45864;BME280;31579;52.354;16.974;2023-04-08T03:07:50;192.0;;;-146.1;100.0
45864;BME280;31579;52.354;16.974;2023-04-08T03:08:53;195.7;;;-146.1;100.0
45864;BME280;31579;52.354;16.974;2023-04-08T03:09:56;201.7;;;-146.1;100.0
45864;BME280;31579;52.354;16.974;2023-04-08T03:10:59;207.3;;;-146.1;100.0
45864;BME280;31579;52.354;16.974;2023-04-08T03:12:01;262.8;;;-146.1;100.0
45864;BME280;31579;52.354;16.974;2023-04-08T03:13:06;208.3;;;-146.1;100.0
45864;BME280;31579;52.354;16.974;2023-04-08T03:14:15;296.7;;;-146.1;100.0
45864;BME280;31579;52.354;16.974;2023-04-08T03:15:18;200.3;;;-146.1;100.0
45864;BME280;31579;52.354;16.974;2023-04-08T03:16:22;244.2;;;-146.1;100.0
45864;BME280;31579;52.354;16.974;2023-04-08T03:17:25;197.2;;;-146.1;100.0
45864;BME280;31579;52.354;16.974;2023-04-08T03:18:28;188.6;;;-146.1;100.0
45864;BME280;31579;52.354;16.974;2023-04-08T03:19:31;188.4;;;-146.1;100.0
45864;BME280;31579;52.354;16.974;2023-04-08T03:20:34;190.1;;;-146.1;100.0
45864;BME280;31579;52.354;16.974;2023-04-08T03:21:38;225.2;;;-146.1;100.0
45864;BME280;31579;52.354;16.974;2023-04-08T03:22:41;190.2;;;-146.1;100.0
45864;BME280;31579;52.354;16.974;2023-04-08T03:23:45;233.9;;;-146.1;100.0
45864;BME280;31579;52.354;16.974;2023-04-08T03:24:48;191.9;;;-146.1;100.0
45864;BME280;31579;52.354;16.974;2023-04-08T03:25:52;238.9;;;-146.1;100.0
45864;BME280;31579;52.354;16.974;2023-04-08T03:26:55;193.7;;;-146.1;100.0
45864;BME280;31579;52.354;16.974;2023-04-08T03:27:58;186.3;;;-146.1;100.0
45864;BME280;31579;52.354;16.974;2023-04-08T03:29:00;214.8;;;-146.1;100.0
45864;BME280;31579;52.354;16.974;2023-04-08T03:30:04;212.7;;;-146.1;100.0
45864;BME280;31579;52.354;16.974;2023-04-08T03:31:08;207.0;;;-146.1;100.0
45864;BME280;31579;52.354;16.974;2023-04-08T03:32:12;230.8;;;-146.1;100.0
45864;BME280;31579;52.354;16.974;2023-04-08T03:33:15;193.9;;;-146.1;100.0
45864;BME280;31579;52.354;16.974;2023-04-08T03:34:19;237.3;;;-146.1;100.0
45864;BME280;31579;52.354;16.974;2023-04-08T03:35:23;195.2;;;-146.1;100.0
45864;BME280;31579;52.354;16.974;2023-04-08T03:36:26;192.5;;;-146.1;100.0
45864;BME280;31579;52.354;16.974;2023-04-08T03:37:29;195.0;;;-146.1;100.0
45864;BME280;31579;52.354;16.974;2023-04-08T03:38:32;198.7;;;-146.1;100.0
45864;BME280;31579;52.354;16.974;2023-04-08T03:39:35;203.4;;;-146.1;100.0
45864;BME280;31579;52.354;16.974;2023-04-08T03:40:39;228.4;;;-146.1;100.0
45864;BME280;31579;52.354;16.974;2023-04-08T03:41:42;200.2;;;-146.1;100.0
45864;BME280;31579;52.354;16.974;2023-04-08T03:42:46;278.8;;;-146.1;100.0
45864;BME280;31579;52.354;16.974;2023-04-08T03:43:49;233.9;;;-146.1;100.0
45864;BME280;31579;52.354;16.974;2023-04-08T03:44:52;226.5;;;-146.1;100.0
45864;BME280;31579;52.354;16.974;2023-04-08T03:45:55;224.6;;;-146.1;100.0
45864;BME280;31579;52.354;16.974;2023-04-08T03:46:58;225.1;;;-146.1;100.0
45864;BME280;31579;52.354;16.974;2023-04-08T03:48:00;259.4;;;-146.1;100.0
45864;BME280;31579;52.354;16.974;2023-04-08T03:49:03;251.6;;;-146.1;100.0
45864;BME280;31579;52.354;16.974;2023-04-08T03:50:06;256.6;;;-146.1;100.0
45864;BME280;31579;52.354;16.974;2023-04-08T03:51:09;258.8;;;-146.1;100.0
45864;BME280;31579;52.354;16.974;2023-04-08T03:52:11;323.3;;;-146.1;100.0
45864;BME280;31579;52.354;16.974;2023-04-08T03:53:15;302.6;;;-146.1;100.0
45864;BME280;31579;52.354;16.974;2023-04-08T03:54:18;302.1;;;-146.1;100.0
45864;BME280;31579;52.354;16.974;2023-04-08T03:55:21;299.7;;;-146.1;100.0
45864;BME280;31579;52.354;16.974;2023-04-08T03:56:24;298.9;;;-146.1;100.0
45864;BME280;31579;52.354;16.974;2023-04-08T03:57:27;303.1;;;-146.1;100.0
45864;BME280;31579;52.354;16.974;2023-04-08T03:58:30;302.8;;;-146.1;100.0
45864;BME280;31579;52.354;16.974;2023-04-08T03:59:33;307.4;;;-146.1;100.0
45864;BME280;31579;52.354;16.974;2023-04-08T04:00:36;311.0;;;-146.1;100.0
45864;BME280;31579;52.354;16.974;2023-04-08T04:01:39;311.6;;;-146.1;100.0
45864;BME280;31579;52.354;16.974;2023-04-08T04:02:42;312.5;;;-146.1;100.0
45864;BME280;31579;52.354;16.974;2023-04-08T04:03:45;312.4;;;-146.1;100.0
45864;BME280;31579;52.354;16.974;2023-04-08T04:04:48;313.2;;;-146.1;100.0
45864;BME280;31579;52.354;16.974;2023-04-08T04:05:51;314.0;;;-146.1;100.0
45864;BME280;31579;52.354;16.974;2023-04-08T04:07:00;347.5;;;-146.1;100.0
45864;BME280;31579;52.354;16.974;2023-04-08T04:08:03;260.7;;;-146.1;100.0
45864;BME280;31579;52.354;16.974;2023-04-08T04:09:06;263.5;;;-146.1;100.0
45864;BME280;31579;52.354;16.974;2023-04-08T04:10:09;268.3;;;-146.1;100.0
45864;BME280;31579;52.354;16.974;2023-04-08T04:11:13;288.0;;;-146.1;100.0
45864;BME280;31579;52.354;16.974;2023-04-08T04:12:17;314.3;;;-146.1;100.0
45864;BME280;31579;52.354;16.974;2023-04-08T04:13:20;265.6;;;-146.1;100.0
45864;BME280;31579;52.354;16.974;2023-04-08T04:14:23;258.5;;;-146.1;100.0
45864;BME280;31579;52.354;16.974;2023-04-08T04:15:26;258.0;;;-146.1;100.0
45864;BME280;31579;52.354;16.974;2023-04-08T04:16:29;259.0;;;-146.1;100.0
45864;BME280;31579;52.354;16.974;2023-04-08T04:17:09;300.2;;;-146.1;100.0
45864;BME280;31579;52.354;16.974;2023-04-08T04:18:12;265.7;;;-146.1;100.0
45864;BME280;31579;52.354;16.974;2023-04-08T04:19:15;257.7;;;-146.1;100.0
45864;BME280;31579;52.354;16.974;2023-04-08T04:20:18;254.6;;;-146.1;100.0
45864;BME280;31579;52.354;16.974;2023-04-08T04:21:21;255.4;;;-146.1;100.0
45864;BME280;31579;52.354;16.974;2023-04-08T04:22:24;258.5;;;-146.1;100.0
45864;BME280;31579;52.354;16.974;2023-04-08T04:23:27;260.7;;;-146.1;100.0
45864;BME280;31579;52.354;16.974;2023-04-08T04:24:30;262.8;;;-146.1;100.0
45864;BME280;31579;52.354;16.974;2023-04-08T04:25:34;266.2;;;-146.1;100.0
45864;BME280;31579;52.354;16.974;2023-04-08T04:26:36;268.0;;;-146.1;100.0
45864;BME280;31579;52.354;16.974;2023-04-08T04:27:39;269.2;;;-146.1;100.0
45864;BME280;31579;52.354;16.974;2023-04-08T04:28:42;272.9;;;-146.1;100.0
45864;BME280;31579;52.354;16.974;2023-04-08T04:29:45;275.0;;;-146.1;100.0
45864;BME280;31579;52.354;16.974;2023-04-08T04:30:48;276.4;;;-146.1;100.0
45864;BME280;31579;52.354;16.974;2023-04-08T04:31:51;278.5;;;-146.1;100.0
45864;BME280;31579;52.354;16.974;2023-04-08T04:32:54;279.8;;;-146.1;100.0
45864;BME280;31579;52.354;16.974;2023-04-08T04:33:57;284.5;;;-146.1;100.0
45864;BME280;31579;52.354;16.974;2023-04-08T04:35:01;292.5;;;-146.1;100.0
45864;BME280;31579;52.354;16.974;2023-04-08T04:36:06;270.5;;;-146.1;100.0
45864;BME280;31579;52.354;16.974;2023-04-08T04:37:06;330.8;;;-146.1;100.0
45864;BME280;31579;52.354;16.974;2023-04-08T04:38:09;308.4;;;-146.1;100.0
45864;BME280;31579;52.354;16.974;2023-04-08T04:39:12;306.3;;;-146.1;100.0
45864;BME280;31579;52.354;16.974;2023-04-08T04:40:16;305.6;;;-146.1;100.0
45864;BME280;31579;52.354;16.974;2023-04-08T04:41:19;289.1;;;-146.1;100.0
45864;BME280;31579;52.354;16.974;2023-04-08T04:42:22;278.0;;;-146.1;100.0
45864;BME280;31579;52.354;16.974;2023-04-08T04:43:25;282.7;;;-146.1;100.0
45864;BME280;31579;52.354;16.974;2023-04-08T04:44:28;285.6;;;-146.1;100.0
45864;BME280;31579;52.354;16.974;2023-04-08T04:45:31;287.3;;;-146.1;100.0
45864;BME280;31579;52.354;16.974;2023-04-08T04:46:34;289.9;;;-146.1;100.0
45864;BME280;31579;52.354;16.974;2023-04-08T04:47:37;291.8;;;-146.1;100.0
45864;BME280;31579;52.354;16.974;2023-04-08T04:48:40;295.1;;;-146.1;100.0
45864;BME280;31579;52.354;16.974;2023-04-08T04:49:43;297.3;;;-146.1;100.0
45864;BME280;31579;52.354;16.974;2023-04-08T04:50:53;299.2;;;-146.1;100.0
45864;BME280;31579;52.354;16.974;2023-04-08T04:51:49;300.6;;;-146.1;100.0
45864;BME280;31579;52.354;16.974;2023-04-08T04:52:52;303.8;;;-146.1;100.0
45864;BME280;31579;52.354;16.974;2023-04-08T04:53:55;305.7;;;-146.1;100.0
45864;BME280;31579;52.354;16.974;2023-04-08T04:54:59;304.7;;;-146.1;100.0
45864;BME280;31579;52.354;16.974;2023-04-08T04:56:02;285.3;;;-146.1;100.0
45864;BME280;31579;52.354;16.974;2023-04-08T04:57:05;337.7;;;-146.1;100.0
45864;BME280;31579;52.354;16.974;2023-04-08T04:58:08;328.2;;;-146.1;100.0
45864;BME280;31579;52.354;16.974;2023-04-08T04:59:11;328.4;;;-146.1;100.0
45864;BME280;31579;52.354;16.974;2023-04-08T05:00:15;298.0;;;-146.1;100.0
45864;BME280;31579;52.354;16.974;2023-04-08T05:01:20;315.9;;;-146.1;100.0
45864;BME280;31579;52.354;16.974;2023-04-08T05:02:24;334.3;;;-146.1;100.0
45864;BME280;31579;52.354;16.974;2023-04-08T05:03:28;346.2;;;-146.1;100.0
45864;BME280;31579;52.354;16.974;2023-04-08T05:04:31;286.0;;;-146.1;100.0
45864;BME280;31579;52.354;16.974;2023-04-08T05:05:35;337.9;;;-146.1;100.0
45864;BME280;31579;52.354;16.974;2023-04-08T05:06:38;282.4;;;-146.1;100.0
45864;BME280;31579;52.354;16.974;2023-04-08T05:07:42;335.9;;;-146.1;100.0
45864;BME280;31579;52.354;16.974;2023-04-08T05:08:46;348.4;;;-146.1;100.0
45864;BME280;31579;52.354;16.974;2023-04-08T05:09:49;288.5;;;-146.1;100.0
45864;BME280;31579;52.354;16.974;2023-04-08T05:10:53;339.8;;;-146.1;100.0
45864;BME280;31579;52.354;16.974;2023-04-08T05:11:57;349.4;;;-146.1;100.0
45864;BME280;31579;52.354;16.974;2023-04-08T05:13:01;354.1;;;-146.1;100.0
45864;BME280;31579;52.354;16.974;2023-04-08T05:14:04;299.0;;;-146.1;100.0
45864;BME280;31579;52.354;16.974;2023-04-08T05:15:13;386.8;;;-146.1;100.0
45864;BME280;31579;52.354;16.974;2023-04-08T05:16:17;357.6;;;-146.1;100.0
45864;BME280;31579;52.354;16.974;2023-04-08T05:17:21;353.8;;;-146.1;100.0
45864;BME280;31579;52.354;16.974;2023-04-08T05:18:24;296.0;;;-146.1;100.0
45864;BME280;31579;52.354;16.974;2023-04-08T05:19:27;272.0;;;-146.1;100.0
45864;BME280;31579;52.354;16.974;2023-04-08T05:20:32;320.6;;;-146.1;100.0
45864;BME280;31579;52.354;16.974;2023-04-08T05:21:34;263.7;;;-146.1;100.0
45864;BME280;31579;52.354;16.974;2023-04-08T05:22:38;312.0;;;-146.1;100.0
45864;BME280;31579;52.354;16.974;2023-04-08T05:23:41;255.7;;;-146.1;100.0
45864;BME280;31579;52.354;16.974;2023-04-08T05:24:44;241.9;;;-146.1;100.0
45864;BME280;31579;52.354;16.974;2023-04-08T05:25:48;290.6;;;-146.1;100.0
45864;BME280;31579;52.354;16.974;2023-04-08T05:26:52;305.2;;;-146.1;100.0
45864;BME280;31579;52.354;16.974;2023-04-08T05:27:56;311.9;;;-146.1;100.0
45864;BME280;31579;52.354;16.974;2023-04-08T05:28:59;251.2;;;-146.1;100.0
45864;BME280;31579;52.354;16.974;2023-04-08T05:30:04;298.2;;;-146.1;100.0
45864;BME280;31579;52.354;16.974;2023-04-08T05:31:07;307.5;;;-146.1;100.0
45864;BME280;31579;52.354;16.974;2023-04-08T05:32:11;311.4;;;-146.1;100.0
45864;BME280;31579;52.354;16.974;2023-04-08T05:33:16;314.6;;;-146.1;100.0
45864;BME280;31579;52.354;16.974;2023-04-08T05:34:19;315.5;;;-146.1;100.0
45864;BME280;31579;52.354;16.974;2023-04-08T05:35:23;314.4;;;-146.1;100.0
45864;BME280;31579;52.354;16.974;2023-04-08T05:36:27;313.9;;;-146.1;100.0
45864;BME280;31579;52.354;16.974;2023-04-08T05:37:31;312.2;;;-146.1;100.0
45864;BME280;31579;52.354;16.974;2023-04-08T05:38:36;310.5;;;-146.1;100.0
45864;BME280;31579;52.354;16.974;2023-04-08T05:39:39;308.2;;;-146.1;100.0
45864;BME280;31579;52.354;16.974;2023-04-08T05:40:43;307.5;;;-146.1;100.0
45864;BME280;31579;52.354;16.974;2023-04-08T05:41:48;304.0;;;-146.1;100.0
45864;BME280;31579;52.354;16.974;2023-04-08T05:42:52;301.8;;;-146.1;100.0
45864;BME280;31579;52.354;16.974;2023-04-08T05:43:56;301.9;;;-146.1;100.0
45864;BME280;31579;52.354;16.974;2023-04-08T05:45:02;297.2;;;-146.1;100.0
45864;BME280;31579;52.354;16.974;2023-04-08T05:46:06;297.4;;;-146.1;100.0
45864;BME280;31579;52.354;16.974;2023-04-08T05:47:09;240.1;;;-146.1;100.0
45864;BME280;31579;52.354;16.974;2023-04-08T05:48:13;276.3;;;-146.1;100.0
45864;BME280;31579;52.354;16.974;2023-04-08T05:49:18;282.6;;;-146.1;100.0